Bethlehem Center, New York
Current Conditions -  °F | °C
As of 6:51 PM on Monday 24 Nov 2014 (Local Time) from KALB Reporting Station
Few Clouds Few Clouds  
Wind Chill: 18°   Ceiling: Unl
Heat Index: 18°   Visibility: 10mi
Dew Point: 12°   Wind: 13mph
Humidity: 68%   Direction: 170°S
Pressure: 29.53"   Gusts: 21mph
Location:  42.5925°N, 73.7845°W
Report Text: KALB 242351Z 17011G18KT 10SM FEW060 FEW095 18/12 A2953 RMK AO2 SLP999 T01830122 10211 20183 51021
Loading
Personal Weather Stations






























Interactive Weather Map New forecast layout! Learn more

10-Day Weather Forecast

Advertisements
Track Severe Weather on mobile